Time;durP1;ratioP1;P1;durP2;ratioP2;P2;SDS_P1;SDS_P2;PMS_P1;PMS_P2;Temp;Humidity;BMP_temperature;BMP_pressure;BME280_temperature;BME280_humidity;BME280_pressure;Samples;Min_cycle;Max_cycle;Signal;HPM_P1;HPM_P2
2023/08/31 00:00:12;;;;;;;11.55;3.90;;;22.70;65.70;;;;;;5032122;28;20051;-53
2023/08/31 00:02:40;;;;;;;13.40;3.35;;;22.70;65.70;;;;;;5047058;28;20025;-55
2023/08/31 00:05:06;;;;;;;14.88;3.45;;;22.70;65.70;;;;;;5050258;28;20025;-50
2023/08/31 00:07:32;;;;;;;12.15;3.65;;;22.70;65.70;;;;;;5050203;28;20607;-55
2023/08/31 00:10:08;;;;;;;12.52;3.50;;;22.70;65.80;;;;;;5052450;28;20064;-53
2023/08/31 00:12:36;;;;;;;11.18;3.60;;;22.70;65.70;;;;;;5050583;28;20112;-54
2023/08/31 00:15:04;;;;;;;11.35;3.78;;;22.70;65.60;;;;;;5050956;28;20431;-55
2023/08/31 00:17:30;;;;;;;15.48;3.95;;;22.70;65.70;;;;;;5045853;28;20026;-54
2023/08/31 00:19:56;;;;;;;16.20;4.45;;;22.70;65.70;;;;;;5043850;28;20031;-52
2023/08/31 00:22:22;;;;;;;14.43;4.57;;;22.70;65.40;;;;;;5049342;28;20356;-51
2023/08/31 00:24:48;;;;;;;11.05;3.92;;;22.70;66.10;;;;;;5056225;28;20036;-55
2023/08/31 00:27:15;;;;;;;13.18;4.10;;;22.70;66.00;;;;;;5046379;28;20492;-53
2023/08/31 00:29:45;;;;;;;12.10;4.05;;;22.70;65.40;;;;;;5030066;28;20036;-53
2023/08/31 00:32:11;;;;;;;15.30;3.90;;;22.70;65.30;;;;;;5046150;28;20024;-55
2023/08/31 00:34:37;;;;;;;13.85;4.15;;;22.70;65.20;;;;;;5046536;28;20504;-53
2023/08/31 00:37:03;;;;;;;15.90;3.85;;;22.70;65.40;;;;;;5045129;28;20535;-51
2023/08/31 00:39:31;;;;;;;16.77;4.05;;;22.70;65.50;;;;;;5033329;28;20508;-54
2023/08/31 00:41:57;;;;;;;18.67;4.20;;;22.70;65.40;;;;;;5031485;28;20583;-52
2023/08/31 00:44:24;;;;;;;13.13;4.22;;;22.70;65.60;;;;;;5032958;28;20040;-55
2023/08/31 00:46:50;;;;;;;14.00;4.50;;;22.70;65.50;;;;;;5031438;28;20032;-54
2023/08/31 00:49:17;;;;;;;10.43;3.95;;;22.70;65.40;;;;;;5028443;28;20063;-54
2023/08/31 00:51:48;;;;;;;13.82;4.22;;;22.70;65.40;;;;;;5051336;28;20450;-54
2023/08/31 00:54:16;;;;;;;11.75;4.50;;;22.70;65.40;;;;;;5047358;28;20032;-52
2023/08/31 00:56:41;;;;;;;12.43;4.25;;;22.70;65.40;;;;;;5050553;28;20037;-51
2023/08/31 00:59:08;;;;;;;16.15;4.25;;;22.70;65.50;;;;;;5032534;28;20104;-53
2023/08/31 01:01:54;;;;;;;14.90;4.68;;;22.70;65.60;;;;;;5050305;28;20540;-49
2023/08/31 01:04:29;;;;;;;13.90;4.20;;;22.60;65.60;;;;;;5030620;28;20055;-49
2023/08/31 01:07:13;;;;;;;13.75;4.28;;;22.60;65.60;;;;;;5029596;28;20061;-54
2023/08/31 01:10:14;;;;;;;13.98;4.05;;;22.70;65.60;;;;;;5050580;28;20381;-49
2023/08/31 01:12:47;;;;;;;12.35;4.13;;;22.60;65.50;;;;;;5031321;28;20029;-54
2023/08/31 01:15:15;;;;;;;14.40;4.50;;;22.70;65.50;;;;;;5050236;28;20029;-49
2023/08/31 01:17:50;;;;;;;14.48;4.18;;;22.70;65.60;;;;;;5050297;28;20033;-52
2023/08/31 01:20:28;;;;;;;16.55;4.68;;;22.70;65.60;;;;;;5041080;28;20044;-55
2023/08/31 01:23:06;;;;;;;15.93;4.60;;;22.70;65.60;;;;;;5045067;28;20029;-50
2023/08/31 01:25:33;;;;;;;17.05;5.13;;;22.70;65.60;;;;;;5045335;28;20031;-53
2023/08/31 01:27:59;;;;;;;13.25;4.90;;;22.70;65.60;;;;;;5033341;28;20096;-55
2023/08/31 01:30:29;;;;;;;15.15;4.57;;;22.70;65.60;;;;;;5025074;28;20029;-49
2023/08/31 01:32:55;;;;;;;17.27;5.03;;;22.70;65.70;;;;;;5024194;28;20073;-51
2023/08/31 01:35:21;;;;;;;15.48;4.90;;;22.70;65.70;;;;;;5043498;28;20029;-51
2023/08/31 01:37:55;;;;;;;13.80;4.38;;;22.70;65.70;;;;;;5048179;28;20447;-50
2023/08/31 01:40:40;;;;;;;14.55;4.68;;;22.70;65.80;;;;;;5047121;28;20052;-53
2023/08/31 01:43:07;;;;;;;16.65;4.43;;;22.70;65.80;;;;;;5048144;28;20020;-49
2023/08/31 01:45:35;;;;;;;10.88;4.00;;;22.70;65.80;;;;;;5054199;28;20481;-53
2023/08/31 01:48:01;;;;;;;14.65;4.22;;;22.70;65.90;;;;;;5049755;28;20025;-54
2023/08/31 01:50:27;;;;;;;13.90;4.10;;;22.70;65.90;;;;;;5050949;28;20029;-50
2023/08/31 01:52:58;;;;;;;14.20;4.53;;;22.70;65.80;;;;;;5047423;28;20029;-55
2023/08/31 01:55:26;;;;;;;12.85;4.40;;;22.70;65.70;;;;;;5050409;28;20025;-53
2023/08/31 01:57:51;;;;;;;18.45;4.75;;;22.70;65.70;;;;;;5036291;28;20044;-47
2023/08/31 02:00:25;;;;;;;15.95;3.97;;;22.70;65.70;;;;;;5066145;23;20052;-54
2023/08/31 02:02:50;;;;;;;11.85;4.07;;;22.70;65.70;;;;;;5059318;28;20028;-49
2023/08/31 02:05:16;;;;;;;12.43;4.00;;;22.70;65.70;;;;;;5085320;28;20020;-53
2023/08/31 02:07:42;;;;;;;11.63;4.00;;;22.70;65.70;;;;;;5087029;28;20396;-53
2023/08/31 02:10:08;;;;;;;15.77;4.28;;;22.80;65.80;;;;;;5078766;28;20083;-48
2023/08/31 02:12:36;;;;;;;9.93;3.30;;;22.70;65.60;;;;;;5072459;28;20461;-52
2023/08/31 02:15:05;;;;;;;10.30;3.25;;;22.70;65.70;;;;;;5045687;28;20039;-49
2023/08/31 02:17:31;;;;;;;13.02;3.80;;;22.70;65.60;;;;;;5073163;28;20075;-52
2023/08/31 02:19:57;;;;;;;10.68;3.25;;;22.70;65.80;;;;;;5048170;28;20059;-49
2023/08/31 02:22:23;;;;;;;14.82;3.83;;;22.70;65.70;;;;;;5043162;28;20032;-51
2023/08/31 02:24:49;;;;;;;10.80;3.60;;;22.70;65.90;;;;;;5036693;28;20029;-55
2023/08/31 02:27:15;;;;;;;10.45;3.80;;;22.70;65.70;;;;;;5062510;28;20103;-56
2023/08/31 02:29:40;;;;;;;10.25;3.80;;;22.70;65.90;;;;;;5049564;28;20029;-50
2023/08/31 02:32:07;;;;;;;10.68;3.25;;;22.70;65.70;;;;;;5068583;28;20075;-48
2023/08/31 02:34:33;;;;;;;9.95;3.30;;;22.70;65.70;;;;;;5069409;28;20024;-56
2023/08/31 02:36:59;;;;;;;9.85;3.60;;;22.70;65.80;;;;;;5068991;28;20389;-53
2023/08/31 02:39:27;;;;;;;10.20;4.13;;;22.70;65.80;;;;;;5048859;28;20423;-53
2023/08/31 02:41:53;;;;;;;8.60;3.17;;;22.70;65.60;;;;;;5034012;28;20021;-53
2023/08/31 02:44:18;;;;;;;11.38;3.80;;;22.60;65.80;;;;;;5068290;28;20024;-50
2023/08/31 02:46:44;;;;;;;8.50;3.63;;;22.60;65.30;;;;;;5068032;28;20107;-54
2023/08/31 02:49:11;;;;;;;8.75;3.20;;;22.60;65.20;;;;;;5047131;28;20024;-53
2023/08/31 02:51:37;;;;;;;10.82;3.65;;;22.60;65.80;;;;;;5069834;28;20399;-49
2023/08/31 02:54:03;;;;;;;9.98;3.60;;;22.60;65.30;;;;;;5042395;28;20083;-51
2023/08/31 02:56:29;;;;;;;10.35;3.42;;;22.60;65.60;;;;;;5053966;28;20110;-50
2023/08/31 02:58:55;;;;;;;6.80;3.10;;;22.60;65.50;;;;;;5044237;28;20554;-49
2023/08/31 03:01:23;;;;;;;9.43;3.60;;;22.60;65.80;;;;;;5053115;28;20033;-48
2023/08/31 03:03:50;;;;;;;11.60;3.55;;;22.60;65.30;;;;;;5054111;28;20035;-51
2023/08/31 03:06:17;;;;;;;7.38;3.15;;;22.60;65.70;;;;;;5064384;28;20032;-55
2023/08/31 03:08:43;;;;;;;8.68;2.80;;;22.60;65.70;;;;;;5051078;28;20025;-51
2023/08/31 03:11:09;;;;;;;7.32;2.90;;;22.60;65.70;;;;;;5033955;28;20044;-52
2023/08/31 03:13:35;;;;;;;8.20;3.50;;;22.60;65.60;;;;;;5052129;28;20025;-51
2023/08/31 03:16:02;;;;;;;9.10;3.45;;;22.60;65.70;;;;;;5062663;28;20039;-50
2023/08/31 03:18:28;;;;;;;8.65;3.67;;;22.60;65.60;;;;;;5065229;28;20028;-53
2023/08/31 03:20:55;;;;;;;9.95;3.17;;;22.60;65.60;;;;;;5069669;28;20404;-51
2023/08/31 03:23:21;;;;;;;11.70;3.25;;;22.60;65.50;;;;;;5044398;28;20438;-51
2023/08/31 03:25:46;;;;;;;9.43;3.38;;;22.60;65.50;;;;;;5045082;28;20029;-55
2023/08/31 03:28:13;;;;;;;10.00;3.38;;;22.60;65.80;;;;;;5055419;28;20029;-54
2023/08/31 03:30:39;;;;;;;8.90;3.97;;;22.60;65.50;;;;;;5045464;28;20584;-55
2023/08/31 03:33:05;;;;;;;8.52;3.20;;;22.60;65.40;;;;;;5066760;28;20024;-54
2023/08/31 03:35:32;;;;;;;9.10;3.38;;;22.60;65.80;;;;;;5045702;28;20393;-55
2023/08/31 03:38:00;;;;;;;8.98;3.47;;;22.50;65.60;;;;;;5051303;28;20024;-51
2023/08/31 03:40:27;;;;;;;11.57;3.65;;;22.50;65.70;;;;;;5050647;28;20028;-48
2023/08/31 03:42:53;;;;;;;12.82;3.95;;;22.50;65.80;;;;;;5047762;28;20036;-53
2023/08/31 03:45:20;;;;;;;10.55;3.83;;;22.50;65.70;;;;;;5060263;28;20025;-54
2023/08/31 03:47:46;;;;;;;6.47;3.35;;;22.50;65.60;;;;;;5060538;28;20485;-48
2023/08/31 03:50:12;;;;;;;7.63;3.00;;;22.50;65.80;;;;;;5049827;28;20028;-51
2023/08/31 03:52:38;;;;;;;6.60;3.25;;;22.50;65.60;;;;;;5043654;28;20112;-54
2023/08/31 03:55:05;;;;;;;6.93;3.25;;;22.50;65.70;;;;;;5041645;28;20163;-49
2023/08/31 03:57:32;;;;;;;10.50;3.70;;;22.50;65.80;;;;;;5034796;28;20044;-49
2023/08/31 04:00:12;;;;;;;6.88;3.13;;;22.50;65.70;;;;;;5049678;28;20427;-50
2023/08/31 04:02:42;;;;;;;8.77;3.55;;;22.50;65.60;;;;;;5055282;28;20520;-51
2023/08/31 04:05:09;;;;;;;9.95;3.55;;;22.50;65.20;;;;;;5052865;28;20485;-49
2023/08/31 04:07:35;;;;;;;8.18;3.75;;;22.50;65.10;;;;;;5064848;28;20029;-54
2023/08/31 04:10:02;;;;;;;8.07;3.67;;;22.50;65.80;;;;;;5047575;28;20424;-49
2023/08/31 04:12:30;;;;;;;8.02;3.90;;;22.50;65.60;;;;;;5038952;28;20028;-49
2023/08/31 04:14:58;;;;;;;5.68;3.30;;;22.50;65.30;;;;;;5045831;28;20043;-49
2023/08/31 04:17:24;;;;;;;7.88;3.53;;;22.50;65.40;;;;;;5049606;28;20108;-50
2023/08/31 04:19:50;;;;;;;7.57;3.67;;;22.50;65.50;;;;;;5066685;28;20108;-52
2023/08/31 04:22:16;;;;;;;6.95;3.30;;;22.60;65.70;;;;;;5061748;28;20115;-49
2023/08/31 04:24:42;;;;;;;7.32;3.60;;;22.50;65.50;;;;;;5050321;28;20025;-52
2023/08/31 04:27:08;;;;;;;9.90;3.67;;;22.50;65.30;;;;;;5052065;28;20120;-50
2023/08/31 04:29:34;;;;;;;8.45;3.60;;;22.50;65.50;;;;;;5033997;28;20043;-53
2023/08/31 04:31:59;;;;;;;7.57;3.70;;;22.50;65.70;;;;;;5051972;28;20119;-50
2023/08/31 04:34:26;;;;;;;8.27;3.78;;;22.50;65.50;;;;;;5055708;28;20681;-54
2023/08/31 04:36:52;;;;;;;7.50;3.63;;;22.50;65.70;;;;;;5065266;28;20040;-51
2023/08/31 04:39:18;;;;;;;13.07;3.88;;;22.50;65.20;;;;;;5064161;28;20476;-54
2023/08/31 04:41:44;;;;;;;5.88;3.28;;;22.50;65.50;;;;;;5065204;28;20035;-53
2023/08/31 04:44:10;;;;;;;9.07;3.38;;;22.50;65.00;;;;;;5067444;28;20025;-56
2023/08/31 04:46:37;;;;;;;10.35;4.20;;;22.60;65.00;;;;;;5061732;28;20032;-53
2023/08/31 04:49:03;;;;;;;8.20;3.85;;;22.50;65.40;;;;;;5069167;28;20572;-55
2023/08/31 04:51:34;;;;;;;8.63;4.00;;;22.60;64.80;;;;;;5048712;28;20152;-55
2023/08/31 04:54:00;;;;;;;7.97;3.50;;;22.50;64.60;;;;;;5061315;28;20029;-56
2023/08/31 04:56:31;;;;;;;7.22;3.60;;;22.50;65.20;;;;;;5051535;28;20056;-56
2023/08/31 04:58:57;;;;;;;9.95;4.35;;;22.60;65.50;;;;;;5053748;28;20385;-54
2023/08/31 05:01:23;;;;;;;9.50;4.10;;;22.60;64.60;;;;;;5068037;28;20035;-53
2023/08/31 05:03:49;;;;;;;10.73;4.25;;;22.50;64.90;;;;;;5066059;28;20035;-54
2023/08/31 05:06:15;;;;;;;8.88;4.28;;;22.60;65.70;;;;;;5067403;28;20032;-55
2023/08/31 05:08:41;;;;;;;9.82;4.15;;;22.50;65.80;;;;;;5051555;28;20028;-55
2023/08/31 05:11:06;;;;;;;10.27;4.18;;;22.50;65.80;;;;;;5047499;28;20047;-55
2023/08/31 05:13:32;;;;;;;11.88;4.35;;;22.50;65.30;;;;;;5062926;28;20024;-54
2023/08/31 05:15:58;;;;;;;9.50;4.15;;;22.50;65.30;;;;;;5063852;28;20029;-51
2023/08/31 05:18:24;;;;;;;9.00;3.80;;;22.50;65.60;;;;;;5012313;28;20561;-55
2023/08/31 05:20:50;;;;;;;13.02;4.85;;;22.50;65.70;;;;;;5051372;28;20020;-52
2023/08/31 05:23:15;;;;;;;9.20;3.78;;;22.60;65.80;;;;;;5067802;28;20028;-52
2023/08/31 05:25:44;;;;;;;9.63;4.30;;;22.50;65.90;;;;;;5055503;28;20073;-52
2023/08/31 05:28:10;;;;;;;11.20;4.72;;;22.50;65.90;;;;;;5065542;28;20089;-57
2023/08/31 05:30:36;;;;;;;9.20;4.43;;;22.50;65.00;;;;;;5064214;28;20033;-57
2023/08/31 05:33:03;;;;;;;12.63;4.40;;;22.50;64.80;;;;;;5062714;28;20053;-54
2023/08/31 05:35:30;;;;;;;10.48;4.00;;;22.40;64.50;;;;;;5071338;28;20396;-56
2023/08/31 05:37:55;;;;;;;6.72;3.47;;;22.40;64.80;;;;;;5064028;28;20081;-57
2023/08/31 05:40:22;;;;;;;6.45;3.08;;;22.40;63.50;;;;;;5062711;28;20480;-57
2023/08/31 05:42:47;;;;;;;7.55;2.92;;;22.30;62.90;;;;;;5071351;28;20535;-57
2023/08/31 05:45:14;;;;;;;6.45;3.15;;;22.20;62.90;;;;;;5070972;28;20120;-54
2023/08/31 05:47:41;;;;;;;8.20;3.75;;;22.20;62.70;;;;;;5062304;28;20103;-56
2023/08/31 05:50:07;;;;;;;8.05;3.13;;;22.10;62.60;;;;;;5069391;28;20396;-57
2023/08/31 05:52:33;;;;;;;8.38;2.95;;;22.20;63.70;;;;;;5071218;28;20033;-56
2023/08/31 05:54:59;;;;;;;13.35;3.70;;;22.20;63.30;;;;;;5056397;28;20032;-57
2023/08/31 05:57:27;;;;;;;11.30;3.38;;;22.20;63.80;;;;;;5050772;28;20044;-56
2023/08/31 05:59:53;;;;;;;9.50;3.30;;;22.30;63.40;;;;;;5050381;28;20370;-57
2023/08/31 06:02:19;;;;;;;6.88;2.50;;;22.30;63.70;;;;;;5033076;28;20025;-55
2023/08/31 06:04:45;;;;;;;10.65;3.67;;;22.40;64.00;;;;;;5050647;28;20507;-57
2023/08/31 06:07:11;;;;;;;11.50;3.08;;;22.40;64.00;;;;;;5058997;28;20028;-56
2023/08/31 06:09:37;;;;;;;10.85;2.97;;;22.50;64.70;;;;;;5062756;28;20488;-56
2023/08/31 06:12:04;;;;;;;5.88;3.05;;;22.50;64.30;;;;;;5061116;28;20028;-55
2023/08/31 06:14:30;;;;;;;9.60;3.25;;;22.50;64.60;;;;;;5062131;28;20036;-55
2023/08/31 06:16:56;;;;;;;9.60;3.03;;;22.50;65.20;;;;;;5069554;28;20028;-56
2023/08/31 06:19:22;;;;;;;12.90;3.40;;;22.50;65.00;;;;;;5062690;28;20115;-57
2023/08/31 06:21:48;;;;;;;25.15;4.15;;;22.50;66.10;;;;;;5069421;28;20032;-53
2023/08/31 06:24:14;;;;;;;18.85;3.63;;;22.60;66.40;;;;;;5063086;28;20074;-56
2023/08/31 06:26:40;;;;;;;18.67;3.47;;;22.60;66.30;;;;;;5060875;28;20496;-57
2023/08/31 06:29:07;;;;;;;14.57;3.13;;;22.60;66.00;;;;;;5050989;28;20032;-57
2023/08/31 06:31:34;;;;;;;12.88;3.60;;;22.60;66.50;;;;;;5053177;28;20029;-57
2023/08/31 06:33:59;;;;;;;11.25;3.10;;;22.50;65.90;;;;;;5054111;28;20082;-56
2023/08/31 06:36:25;;;;;;;26.13;3.35;;;22.50;66.10;;;;;;5054360;28;20037;-57
2023/08/31 06:38:51;;;;;;;27.52;3.72;;;22.50;65.90;;;;;;5065292;28;20025;-57
2023/08/31 06:41:17;;;;;;;13.57;3.58;;;22.50;66.20;;;;;;5065889;28;20038;-57
2023/08/31 06:43:43;;;;;;;21.35;3.67;;;22.50;66.50;;;;;;5064831;28;20020;-57
2023/08/31 06:46:08;;;;;;;14.73;3.90;;;22.50;66.80;;;;;;5065085;28;20115;-57
2023/08/31 06:48:34;;;;;;;12.73;3.65;;;22.50;66.60;;;;;;5073853;28;20036;-57
2023/08/31 06:51:03;;;;;;;19.27;4.13;;;22.50;66.70;;;;;;5074054;28;20033;-55
2023/08/31 06:53:31;;;;;;;12.70;3.47;;;22.50;66.50;;;;;;5073893;28;20020;-57
2023/08/31 06:55:58;;;;;;;10.85;3.80;;;22.50;66.50;;;;;;5074027;28;20040;-57
2023/08/31 06:58:24;;;;;;;11.55;3.40;;;22.50;66.70;;;;;;5073993;28;20035;-57
2023/08/31 07:00:49;;;;;;;8.90;3.55;;;22.50;66.70;;;;;;5073887;28;20431;-52
2023/08/31 07:03:15;;;;;;;14.43;3.53;;;22.40;66.50;;;;;;5073627;28;20033;-52
2023/08/31 07:05:42;;;;;;;14.25;3.95;;;22.50;66.70;;;;;;5073934;28;20029;-53
2023/08/31 07:08:08;;;;;;;9.75;3.55;;;22.40;66.50;;;;;;5073967;28;20112;-55
2023/08/31 07:10:37;;;;;;;11.35;3.60;;;22.40;66.60;;;;;;5073758;28;20564;-51
2023/08/31 07:13:04;;;;;;;8.77;3.65;;;22.40;66.50;;;;;;5073784;28;20059;-57
2023/08/31 07:15:30;;;;;;;9.93;3.40;;;22.40;66.60;;;;;;5073579;28;20031;-55
2023/08/31 07:17:56;;;;;;;10.13;3.75;;;22.40;66.50;;;;;;5073689;28;20286;-50
2023/08/31 07:20:22;;;;;;;11.98;4.13;;;22.40;66.50;;;;;;5073566;28;20446;-57
2023/08/31 07:22:48;;;;;;;8.85;3.53;;;22.40;66.50;;;;;;5073653;28;20419;-55
2023/08/31 07:25:13;;;;;;;9.18;3.67;;;22.40;66.50;;;;;;5073327;28;20103;-57
2023/08/31 07:27:39;;;;;;;8.90;3.65;;;22.40;66.50;;;;;;5073493;28;20438;-57
2023/08/31 07:30:06;;;;;;;8.27;3.90;;;22.40;66.50;;;;;;5073440;28;20061;-57
2023/08/31 07:32:32;;;;;;;7.88;3.63;;;22.40;66.40;;;;;;5055371;28;20036;-55
2023/08/31 07:34:58;;;;;;;9.02;3.50;;;22.40;66.40;;;;;;5054600;28;20437;-57
2023/08/31 07:37:24;;;;;;;12.88;3.88;;;22.40;66.40;;;;;;5073241;28;20138;-57
2023/08/31 07:39:50;;;;;;;8.07;3.50;;;22.40;66.30;;;;;;5073188;28;20017;-57
2023/08/31 07:42:15;;;;;;;8.02;3.47;;;22.40;66.30;;;;;;5073164;28;20060;-56
2023/08/31 07:44:41;;;;;;;5.90;3.20;;;22.40;66.20;;;;;;5072881;28;20025;-55
2023/08/31 07:47:07;;;;;;;7.78;3.80;;;22.40;66.30;;;;;;5073135;28;20028;-57
2023/08/31 07:49:33;;;;;;;8.68;3.60;;;22.40;66.20;;;;;;5072995;28;20020;-56
2023/08/31 07:51:59;;;;;;;7.53;3.67;;;22.40;66.20;;;;;;5072956;28;20032;-52
2023/08/31 07:54:25;;;;;;;7.85;3.33;;;22.40;66.10;;;;;;5072783;28;20040;-56
2023/08/31 07:56:52;;;;;;;9.63;3.60;;;22.40;66.10;;;;;;5072853;28;20123;-57
2023/08/31 07:59:18;;;;;;;7.70;3.30;;;22.40;66.10;;;;;;5072807;28;20033;-57
2023/08/31 08:01:44;;;;;;;11.73;3.53;;;22.40;66.00;;;;;;5095830;22;20055;-47
2023/08/31 08:04:13;;;;;;;5.40;3.10;;;22.40;66.00;;;;;;5071785;28;20031;-47
2023/08/31 08:06:39;;;;;;;9.60;3.78;;;22.40;66.00;;;;;;5072762;28;20032;-51
2023/08/31 08:09:05;;;;;;;10.18;3.80;;;22.40;65.80;;;;;;5072656;28;20024;-47
2023/08/31 08:11:31;;;;;;;6.35;3.08;;;22.40;65.80;;;;;;5072611;28;20059;-50
2023/08/31 08:13:57;;;;;;;8.13;3.60;;;22.40;65.70;;;;;;5054546;28;20029;-47
2023/08/31 08:16:23;;;;;;;7.20;3.20;;;22.50;65.80;;;;;;5072603;28;20035;-48
2023/08/31 08:18:50;;;;;;;8.93;3.00;;;22.50;65.70;;;;;;5072383;28;20027;-49
2023/08/31 08:21:16;;;;;;;6.80;3.00;;;22.50;65.70;;;;;;5072393;28;20051;-47
2023/08/31 08:23:41;;;;;;;9.63;4.10;;;22.50;65.70;;;;;;5072021;28;20487;-48
2023/08/31 08:26:07;;;;;;;7.47;3.10;;;22.50;65.70;;;;;;5072338;28;20028;-51
2023/08/31 08:28:33;;;;;;;7.75;3.35;;;22.50;65.70;;;;;;5072186;28;20028;-53
2023/08/31 08:31:03;;;;;;;6.57;3.00;;;22.50;65.60;;;;;;5072161;28;20032;-47
2023/08/31 08:33:30;;;;;;;7.80;2.90;;;22.50;65.70;;;;;;5071829;28;20056;-47
2023/08/31 08:35:58;;;;;;;7.80;3.28;;;22.50;65.70;;;;;;5072108;28;20043;-49
2023/08/31 08:38:25;;;;;;;5.60;2.90;;;22.50;65.60;;;;;;5072121;28;20039;-49
2023/08/31 08:40:51;;;;;;;7.93;3.33;;;22.50;65.60;;;;;;5071953;28;20024;-51
2023/08/31 08:43:26;;;;;;;6.72;3.10;;;22.50;65.40;;;;;;5071788;28;20028;-47
2023/08/31 08:45:53;;;;;;;8.88;2.90;;;22.50;65.40;;;;;;5071773;28;20031;-47
2023/08/31 08:48:21;;;;;;;6.60;3.00;;;22.60;65.50;;;;;;5071881;28;20445;-50
2023/08/31 08:50:48;;;;;;;8.43;3.40;;;22.50;65.50;;;;;;5071718;28;20028;-50
2023/08/31 08:53:15;;;;;;;6.50;3.20;;;22.50;65.60;;;;;;5071583;28;20036;-49
2023/08/31 08:55:43;;;;;;;8.15;3.20;;;22.50;65.50;;;;;;5071874;28;20025;-51
2023/08/31 08:58:22;;;;;;;7.88;3.40;;;22.50;65.50;;;;;;5071715;28;20210;-47
2023/08/31 09:00:48;;;;;;;7.28;2.90;;;22.50;65.50;;;;;;5071667;28;20078;-48
2023/08/31 09:03:14;;;;;;;6.65;3.20;;;22.50;65.40;;;;;;5071542;28;20020;-47
2023/08/31 09:05:40;;;;;;;6.13;2.92;;;22.40;65.40;;;;;;5071687;28;20020;-48
2023/08/31 09:08:12;;;;;;;8.23;3.78;;;22.50;65.50;;;;;;5071703;28;20081;-50
2023/08/31 09:10:40;;;;;;;14.45;3.22;;;22.40;65.40;;;;;;5071543;28;20446;-47
2023/08/31 09:13:15;;;;;;;7.85;3.25;;;22.50;65.30;;;;;;5071520;28;20036;-51
2023/08/31 09:15:48;;;;;;;8.15;3.17;;;22.50;65.60;;;;;;5071674;28;20063;-47
2023/08/31 09:18:26;;;;;;;6.30;3.38;;;22.50;65.60;;;;;;5071509;28;20062;-52
2023/08/31 09:20:53;;;;;;;8.48;3.10;;;22.50;65.60;;;;;;5071443;28;20035;-51
2023/08/31 09:23:18;;;;;;;9.02;3.55;;;22.50;65.40;;;;;;5071087;28;20035;-48
2023/08/31 09:25:47;;;;;;;6.25;3.13;;;22.50;65.50;;;;;;5071642;28;20095;-47
2023/08/31 09:28:13;;;;;;;8.07;2.90;;;22.50;65.60;;;;;;5071464;28;20025;-49
2023/08/31 09:30:42;;;;;;;5.65;3.03;;;22.50;65.50;;;;;;5071374;28;20036;-49
2023/08/31 09:33:10;;;;;;;7.03;3.60;;;22.40;65.30;;;;;;5071664;28;20380;-50
2023/08/31 09:36:06;;;;;;;6.50;3.15;;;22.50;65.30;;;;;;5071184;28;20334;-48
2023/08/31 09:38:32;;;;;;;7.10;3.17;;;22.40;65.30;;;;;;5070939;28;20439;-47
2023/08/31 09:41:07;;;;;;;5.57;3.17;;;22.40;65.30;;;;;;5071274;28;20024;-47
2023/08/31 09:43:33;;;;;;;7.95;3.10;;;22.40;65.80;;;;;;5053095;28;20035;-47
2023/08/31 09:46:00;;;;;;;6.63;3.47;;;22.50;65.30;;;;;;5071216;28;20032;-52
2023/08/31 09:48:26;;;;;;;6.85;3.50;;;22.40;65.50;;;;;;5071188;28;20029;-52
2023/08/31 09:50:54;;;;;;;6.13;3.33;;;22.50;65.70;;;;;;5071138;28;20078;-52
2023/08/31 09:53:21;;;;;;;7.43;3.40;;;22.50;65.30;;;;;;5070965;28;20246;-50
2023/08/31 09:55:51;;;;;;;7.38;3.30;;;22.50;65.70;;;;;;5071180;28;20052;-47
2023/08/31 09:58:20;;;;;;;;;;;22.50;65.40;;;;;;5075265;28;20443;-48
2023/08/31 10:00:47;;;;;;;6.72;3.50;;;22.50;65.10;;;;;;5074800;28;19919;-49
2023/08/31 10:03:15;;;;;;;5.25;3.17;;;22.50;65.10;;;;;;5074754;28;20036;-52
2023/08/31 10:05:44;;;;;;;6.53;3.30;;;22.50;65.10;;;;;;5075016;28;20029;-47
2023/08/31 10:08:11;;;;;;;;;;;22.50;65.80;;;;;;5075527;28;20025;-50
2023/08/31 10:10:37;;;;;;;6.55;3.30;;;22.50;65.70;;;;;;5074927;28;20307;-53
2023/08/31 10:13:07;;;;;;;6.50;3.55;;;22.50;65.10;;;;;;5074948;28;20032;-49
2023/08/31 10:15:34;;;;;;;;;;;22.50;65.70;;;;;;5075328;28;20031;-47
2023/08/31 10:18:02;;;;;;;9.00;3.45;;;22.60;65.90;;;;;;5074717;28;19916;-48
2023/08/31 10:20:31;;;;;;;5.47;2.90;;;22.60;65.30;;;;;;5074702;28;20483;-47
2023/08/31 10:23:07;;;;;;;6.77;3.30;;;22.50;66.00;;;;;;5074629;28;20027;-48
2023/08/31 10:26:03;;;;;;;7.70;3.63;;;22.50;65.20;;;;;;5074479;28;20024;-48
2023/08/31 10:28:29;;;;;;;7.22;3.63;;;22.50;65.10;;;;;;4973566;28;20126;-49
2023/08/31 10:31:08;;;;;;;6.63;3.47;;;22.50;65.40;;;;;;4973558;28;20034;-50
2023/08/31 10:33:44;;;;;;;8.23;3.95;;;22.50;65.50;;;;;;4973200;28;20042;-48
2023/08/31 10:36:20;;;;;;;6.63;3.55;;;22.50;65.40;;;;;;4973371;28;20224;-47
2023/08/31 10:39:13;;;;;;;7.85;3.70;;;22.50;65.20;;;;;;4973433;28;20125;-47
2023/08/31 10:41:40;;;;;;;7.88;3.88;;;22.50;65.40;;;;;;4966165;28;20120;-51
2023/08/31 10:44:21;;;;;;;7.47;4.03;;;22.40;65.40;;;;;;4973044;28;20037;-49
2023/08/31 10:46:48;;;;;;;8.57;4.35;;;22.50;65.30;;;;;;4973111;28;20586;-50
2023/08/31 10:49:17;;;;;;;8.23;3.95;;;22.40;65.20;;;;;;4957184;28;20094;-47
2023/08/31 10:51:45;;;;;;;10.40;4.38;;;22.50;65.20;;;;;;4973181;28;20047;-50
2023/08/31 10:54:21;;;;;;;7.55;4.18;;;22.40;65.30;;;;;;4972840;28;20103;-48
2023/08/31 10:57:02;;;;;;;7.90;4.13;;;22.50;65.30;;;;;;4972951;28;20487;-50
2023/08/31 11:00:00;;;;;;;8.88;4.63;;;22.40;65.30;;;;;;4973027;28;20038;-47
2023/08/31 11:02:32;;;;;;;7.60;4.50;;;22.40;65.30;;;;;;4915412;29;20460;-50
2023/08/31 11:05:24;;;;;;;6.95;3.78;;;22.50;65.90;;;;;;4967218;28;20118;-48
2023/08/31 11:07:52;;;;;;;9.43;4.47;;;22.50;65.30;;;;;;5010739;28;20068;-47
2023/08/31 11:10:23;;;;;;;7.18;4.30;;;22.50;65.30;;;;;;5011727;28;20026;-49
2023/08/31 11:12:50;;;;;;;8.23;4.40;;;22.50;65.30;;;;;;5011823;28;20076;-48
2023/08/31 11:15:18;;;;;;;8.98;4.38;;;22.50;65.30;;;;;;5011390;28;20034;-50
2023/08/31 11:17:46;;;;;;;8.45;4.15;;;22.50;65.20;;;;;;5011569;28;20033;-50
2023/08/31 11:20:17;;;;;;;7.45;4.05;;;22.50;65.20;;;;;;5011617;28;20026;-49
2023/08/31 11:22:44;;;;;;;7.80;4.35;;;22.50;65.30;;;;;;5011657;28;20109;-47
2023/08/31 11:25:13;;;;;;;8.05;4.30;;;22.50;65.20;;;;;;5011226;28;20046;-47
2023/08/31 11:27:39;;;;;;;8.90;4.07;;;22.50;65.20;;;;;;5011561;28;20401;-48
2023/08/31 11:30:16;;;;;;;7.70;3.83;;;22.50;65.20;;;;;;5011392;28;20037;-48
2023/08/31 11:32:51;;;;;;;7.82;4.18;;;22.50;65.20;;;;;;4995029;28;20038;-48
2023/08/31 11:35:18;;;;;;;8.98;4.40;;;22.50;65.20;;;;;;5011282;28;20034;-48
2023/08/31 11:37:45;;;;;;;9.13;4.10;;;22.50;65.20;;;;;;5035107;28;20036;-47
2023/08/31 11:40:14;;;;;;;8.43;4.07;;;22.50;65.30;;;;;;5073266;28;20073;-49
2023/08/31 11:42:40;;;;;;;9.07;4.33;;;22.50;65.30;;;;;;5073185;28;20043;-50
2023/08/31 11:45:06;;;;;;;7.25;3.92;;;22.40;65.30;;;;;;5072740;28;20020;-50
2023/08/31 11:47:33;;;;;;;8.30;4.25;;;22.40;65.30;;;;;;5073127;28;20024;-49
2023/08/31 11:50:01;;;;;;;7.55;4.20;;;22.40;65.30;;;;;;5073029;28;20055;-49
2023/08/31 11:52:27;;;;;;;8.73;4.43;;;22.40;65.30;;;;;;5073031;28;20048;-47
2023/08/31 11:54:53;;;;;;;9.65;4.50;;;22.40;65.30;;;;;;5072692;28;20396;-49
2023/08/31 11:57:25;;;;;;;8.75;4.78;;;22.40;65.30;;;;;;5072869;28;20032;-51
2023/08/31 11:59:52;;;;;;;9.30;4.63;;;22.40;65.30;;;;;;5072943;28;20053;-49
2023/08/31 12:02:19;;;;;;;7.97;4.30;;;22.40;65.30;;;;;;5072827;28;20047;-48
2023/08/31 12:04:46;;;;;;;7.50;4.28;;;22.40;65.40;;;;;;5072546;28;20056;-48
2023/08/31 12:07:21;;;;;;;9.73;4.50;;;22.40;65.30;;;;;;5072718;28;20032;-47
2023/08/31 12:09:49;;;;;;;7.63;4.25;;;22.40;65.50;;;;;;5073133;28;20048;-48
2023/08/31 12:12:17;;;;;;;6.82;4.18;;;22.40;65.30;;;;;;5072579;28;20090;-48
2023/08/31 12:14:43;;;;;;;8.45;4.32;;;22.40;65.30;;;;;;5072287;28;20031;-48
2023/08/31 12:17:09;;;;;;;8.15;4.22;;;22.40;65.40;;;;;;5072731;28;20037;-47
2023/08/31 12:19:39;;;;;;;8.25;4.47;;;22.40;65.40;;;;;;5072252;28;20377;-48
2023/08/31 12:22:12;;;;;;;9.23;3.70;;;22.40;65.40;;;;;;5072379;28;20109;-47
2023/08/31 12:24:41;;;;;;;10.07;4.65;;;22.40;65.30;;;;;;5072004;28;20029;-49
2023/08/31 12:27:08;;;;;;;7.85;4.35;;;22.50;65.40;;;;;;5072569;28;20098;-47
2023/08/31 12:29:34;;;;;;;8.45;4.32;;;22.40;65.40;;;;;;5072249;28;20025;-47
2023/08/31 12:32:00;;;;;;;9.07;4.70;;;22.40;65.40;;;;;;5072144;28;20102;-48
2023/08/31 12:34:26;;;;;;;9.27;4.40;;;22.40;65.50;;;;;;5071860;28;20490;-52
2023/08/31 12:36:52;;;;;;;6.80;4.28;;;22.40;65.40;;;;;;5054322;28;20024;-48
2023/08/31 12:39:18;;;;;;;8.57;4.60;;;22.40;65.40;;;;;;5072425;28;20176;-48
2023/08/31 12:41:44;;;;;;;7.75;4.32;;;22.40;65.40;;;;;;5071998;28;20060;-50
2023/08/31 12:44:10;;;;;;;9.10;4.60;;;22.40;65.60;;;;;;5071713;28;20063;-48
2023/08/31 12:46:36;;;;;;;9.98;4.63;;;22.40;65.40;;;;;;5071901;28;20087;-49